Ir al contenido principal

Entradas

Mostrando las entradas de enero, 2011

Ushuaia helicóptero en emergencia

Metar a la hora del incidente (en rojo) aportado por nuestro corresponsal en Ushuaia SA 31/01/2011 20:00-> METAR SAWH 312000Z 25017KT 9999 SCT045 BKN100 09/00 Q1003= SA 31/01/2011 19:00-> METAR SAWH 311900Z 23019KT 9999 SCT042 SCT100 10/M01 Q1003= SA 31/01/2011 18:00-> METAR SAWH 311800Z 23020KT 9999 SCT045 BKN100 09/00 Q1003= SA 31/01/2011 17:00-> METAR SAWH 311700Z 23027G38KT 9999 BKN045 SCT100 09/M00 Q1002= SA 31/01/2011 16:00-> METAR SAWH 311600Z 23026G36KT 9999 BKN042 SCT100 09/01 Q1002= SA 31/01/2011 15:00-> METAR SAWH 311500Z 23024G33KT 9999 SCT030 SCT100 08/01 Q1001= SA 31/01/2011 14:00-> METAR SAWH 311400Z 23022G29KT 9999 FEW025 SCT035 08/01 Q1001= SA 31/01/2011 13:00-> METAR SAWH 311300Z 23022G33KT 9999 FEW020 SCT035 BKN100 07/02 Q1000= SA 31/01/2011 12:00-> METAR SAWH 311200Z 25023G30

Accidente en Córdoba - LV-X328

Una avioneta cayó en un campo arado en José Ignacio Díaz Sucedió alrededor de las 19 en el sudeste de la ciudad. Los dos ocupantes de la aeronave resultaron con golpes leves. Una avioneta tipo experimental se precipitó a tierra esta tarde en un campo arado de barrio José Ignacio Díaz resultando sus dos ocupantes con golpes leves, informó la Policía. En el lugar se hicieron presentes personal de Fuerza Aérea y el 107, que atendió a los ocupantes de la aeronave en el lugar. Cayó una avioneta, los dos ocupantes se salvaron El motor de la máquina se paró y el piloto hizo un aterrizaje de emergencia en Coronel Olmedo. Una avioneta se estrelló en la tarde de ayer en la ciudad de Córdoba, y sus dos ocupantes resultaron con heridas leves, informó la Policía. El hecho se registró a las 19, en un campo ubicado entre los barrios Cárcano y Coronel Olmedo. Por razones que se investigan, el motor de la aeronave dejó de funcionar y sus pilotos debieron realizar un aterrizaje de emergenci

COMPARTIR LOS CIELOS Una Guía de la Industria de Aviación de la Gestión de Riesgos de Vida Silvestre (en Inglés)

SHARING THE SKIES An Aviation Industry Guide to the Management of Wildlife Hazards

Amenaza de bomba en un vuelo de LAN

Investigan amenaza de bomba a un avión de la empresa LAN Despegó desde el Aeroparque Metropolitano el domingo pasado con destino a Río Gallegos. El llamado intimidatorio habría provenido desde un teléfono situado en la ciudad de Mar del Plata. El juez federal Norberto Oyarbide investigaba una amenaza de bomba registrada en un avión de la línea aérea LAN que despegó desde el Aeroparque Metropolitano el domingo pasado con destino a Río Gallegos, se informó hoy. Fuentes judiciales describieron que poco antes de la hora fijada para el despegue del vuelo, las 23.01, personal de la administradora de la aeroestación Aeropuertos Argentina 2000 recibió un llamado anónimo al

Nuevo avión caza de fabricación Hindú.

Fuerza Aérea de India recibe primer avión de combate de fabricación nacional Avión de la marca LCA Tejas La Fuerza Aérea de India recibió hoy el primer avión de la marca LCA Tejas, modelo de fabricación nacional que es el más ligero del mundo en la categoría de cazas supersónicos de combate. “Es un momento histórico”, manifestó el jefe de la Fuerza Aérea, Pradeep Vasant Naik, durante la solemne ceremonia del traspaso que tuvo lugar en la ciudad de Bangalore. El militar resaltó que “India se ha incorporado a un club de élite, de naciones capaces de crear desde cero plataformas aéreas de combate”. El Ejército de Aire indio planea comprar unos 200 aviones Tejas que irán reemplazando a los ya anticuados MiG-21 desarrollados en la URSS. Las primeras 40 máquinas de este modelo monoplaza de 13 toneladas estarán equipadas con motores de la marca General Electric pero el lote siguiente ya se dotará de un modelo más poderoso, F414. Paralelamente, ingenieros indios siguen desarrollan

HondaJet

Honda culmina con éxito la primera prueba de su pequeño avión HondaJet para vuelos de negocios El HondaJet se fabricará en serie en EEUU y será entregado a finales del 2012. Honda Motor dijo el miércoles 22 que su filial estadounidense Honda Aircraft tuvo éxito en la primera navegación aérea del HondaJet, su avión de pequeñas dimensiones, que podrá ser entregado a los clientes a finales del 2012. En la prueba, el HondaJet, con capacidad para 7 u 8 personas y que servirá para vuelos de negocios, despegó de un aeropuerto de North Carolina (EEUU), ubicado en el sur de la casa matriz de Honda Aircraft, y voló durante 50 minutos. Este vuelo de prueba fue realizado el martes 21 a las 5.30 de la mañana (hora japonesa). Honda Aircraft revisó todas las funciones de los sistemas e hizo una valoración del vuelo. “ Me alegro mucho de poder demostrar el alto nivel de la tecnología de Honda”, dijo Michimasa Fujino, presidente de Honda Aircraft, en un comunicado. “Seguiremos esf

Radiobalizas de 406.0 Mhz

Radiobalizas de 406.0 Mhz Existen en la actualidad tres tipos distintos de radiobalizas de 406 Mhz: ELT - Radiobaliza para aeronaves. EPIRB - Radiobaliza utilizada para embarcaciones. PLB - Radiobaliza para uso personal Las radiobalizas de 406 Mhz tiene asociadas una seńal homing en 121.5 Mhz como ayuda para la deteccion de ultima milla. Cuentan con un radio de busqueda de 2 millas nauticas (4 km). En comparación con las antiguas radiobalizas de 121.5 mhz y 243.00 mhz (actualmente en desuso) que tiene un radio de busqueda entre 15 y 20 millas nauticas (30/40 km). Todas las balizas de 406 Mhz, tienen en su memoria, un código hexadecimal con información específica, como nombre del buque/aeronave, pais en el que fueron registradas, etc. esta información es utilizada en el Centro Control de Mision Argentina (ARMCC) para determinar a quien pertenece la baliza, agilizando la busqueda, como asi tambien para consulta con otros Centros de Control en el mundo

Hablando un poco del Body Scanner por Hernán Lijo

Con motivo de la publicación hace unos días en el blog sobre los nuevos Body Scanner que se instalarán en el Aeropuerto internacional de Ezeiza, nuestro colaborador Hernán Lijo, Técnico Radiólogo, cursando actualmente su licenciatura, ha realizado un informe sobre estos equipos para compartir con todos los lectores. Este surge por preguntas que le he realizado sobre la radiación que un pasajero frecuente o el personal que trabajara con esos equipos recibe y si esto era perjudicial o no a la salud. Comparto aquí lo escrito por Hernán. S i bien cualquier intento de reforzar la seguridad aeroportuaria es importante, l os pasajeros aéreos deben ser conscientes de los riesgos para la salud que los escáneres corporales de los aeropuertos presentan y los gobiernos deben explicar cualquier decisión de exponer al público a niveles más altos de riesgo de cáncer que causa la radiación, un informe interinstitucional dijo: Las mujeres embarazadas y los niños no deben ser objeto de análisis, a p

Australia

Australia: las inundaciones no dan tregua aeropuerto de Rockhampton Fotografía de la pista del aeropuerto de Rockhampton, Australia – Foto: AFP Un vehículo intenta desplazarse sobre la pista del aeropuerto de Rockhampton – Foto: AFP

Cartas VFR 1:1.000.000

Aqui les dejo para descargar un pack de cartas VFR de argentina 1:1.000.000 . Datan de 1985 a 1990. no están actualizadas, pero tienen su valor. Estan realizadas en los Estados Unidos y son las correspondientes a todo el territorio, aunque hay zonas en las cuales tiene la leyenda datos poco fiables con respecto a alturas. DESCARGA

EQUIPO BODY-SCANNER Aeropuerto de Ezeiza

Publicación en el Boletín Oficial MINISTERIO DE JUSTICIA Y DERECHOS HUMANOS POLICIA DE SEGURIDAD AEROPORTUARIA Disposición Nº 988/2010 Ezeiza, 13/12/2010 VISTO el Expediente Nº S02:0005699/2010 del registro de esta POLICIA DE SEGURIDAD AEROPORTUARIA, la Ley Nº 26.102, la Resolución Nº 1617 del 23 de diciembre de 2009 del MINISTERIO DE JUSTICIA, SEGURIDAD Y DERECHOS HUMANOS, la Disposición Nº 74 del 25 de enero de 2010 de esta POLICIA DE SEGURIDAD AEROPORTUARIA, y CONSIDERANDO: Que la Ley Nº 26.102 establece que será misión de esta POLICIA DE SEGURIDAD AEROPORTUARIA, la seguridad aeroportuaria preventiva consistente en la planificación, implementación, evaluación y/o coordinación de las actividades y operaciones, en el nivel estratégico y táctico, necesarias para prevenir, conjurar e investigar los delitos y las infracciones en el ámbito aeroportuario. Que tal como indica el Artículo 10 del Anexo I a la Resolución M.J.S y D.H Nº 1617/09, la Dirección General de Seguridad Aero

MANUAL SOBRE EL SISTEMA DE NOTIFICACIÓN DE LA OACI DE LOS CHOQUES CON AVES (IBIS)

DOC 9332 Descarga

Se estrella un avión con 156 pasajeros en Irán

Se estrella un avión con 156 pasajeros en Irán Un avión de pasajeros con 156 personas a bordo se ha estrellado cerca de la ciudad de Urumiyeh, en el noroeste del país, según ha informado la televisión pública. Al parecer, se debió a la tormenta de viento y nieve que azota la zona. Según la televisión estatal, en el avión viajaban 156 personas. Al menos medio centenar de ellos han podido ser rescatados. El avión, propiedad de la compañía estatal "Iranair", cubría la ruta entre Teherán y la ciudad de Urumiyeh, cercana a la frontera con Turquía. Metars: OITR 091800Z 29004KT 0500 +SN SCT015 SCT020 OVC060 00/00 Q1016 OITR 091750Z 29004KT 0500 +SN SCT015 SCT020 OVC060 00/00 Q1016 OITR 091700Z 33004KT 0600 +SN SCT015 SCT020 OVC060 00/00 Q1016 OITR 091650Z 33004KT 0600 +SN SCT015 SCT020 OVC060 00/00 Q1016 OITR 091600Z 26004KT 0800 SN SCT015 SCT020 OVC060 00/00 Q1016 OITR 091550Z 26004KT 0800 SN SCT015 SCT020 OVC060 00/00 Q1016 OITR 091500Z 24006KT 0800 +SN SCT015 SCT02

Nuevos puntos de notificación

DESCARGA PACK DE RUTEROS Y TMA EN RUTA RNAV UT 650, NIVEL DE VUELO MINIMO: FL 290 EN RUTA UA558, SE ESTABLECE EL PUNTO DE NOTIFICACION OBLIGATORIO ROMUR (303406S/0614012W) ENTRE CERES VOR/DME Y EL PUNTO ISOPO. EN RUTA UA 556, SE ESTABLECE EL PUNTO DE NOTIFICACION PULEN (291448S/0573654W) ENTRE MONTE CASEROS VOR/DME Y EL PUNTO BITUS. EN RUTA UL 550, SE ESTABLECE EL PUNTO DE NOTIFICACION OPTIR (304654S/0622242W) ENTRE LOS PUNTOS PORKA Y ROKER. EN RUTA UW 65 Y RNAV UL793, SE ESTABLECE EL PUNTO DE NOTIFICACION OBLIGATORIO KILIP (294042S - 0585306W), ENTRE EL PUNTO DAMIS Y TODES.

Nueva AWY UT650 y Punto de notificación TERON

Ceniza volcánica

"Entre los invitados para formar parte del IAVTF se encuentran los países anfitriones donde están localizados los nueve centros de avisos de cenizas volcánicas de la vigilancia de los volcanes en las aerovías internacionales, a saber: Argentina, Australia, Canadá, Francia, Japón, Nueva Zelanda, el Reino Unido y los Estados Unidos. Se agregó a Brasil como otro de los Estados donde se fabrican aeronaves comerciales y, también, a España, puesto que actualmente preside la Unión Europea. " Ceniza Volcanica

Primer accidente aéreo del año: Rusia explota la turbina de un Tupolev

Lamentablemente el primer accidente aéreo del año Rusia: aumenta a tres el número de muertos tras incendio en avión En el aeropuerto de Surgut se incendió un avión TU-154 (ciudad de Rusia, situada en el distrito autónomo de Khanty-Mansi, en Siberia Occidental). Según los datos del Ministerio para situaciones de Emergencia fallecieron tres personas y 44 ha sido llevadas al hospital de la ciudad con numerosas quemaduras e intoxicación al inhalar humo. “Una persona todavía no ha sido hallada”, comentó el representante del Ministerio Rashid Abrarov. El avión de la compañía aérea Kogalymavia realizaba el vuelo 348 Surgut- Moscú (aeropuerto Domodédovo). Al salir a la pista, uno de los motores se incendió. Casi todos los pasajeros fueron evacuados. Poco tiempo después estalló uno de los depósitos con combustible que se dispersó por un territorio de mil kilómetros cuadrados. Aunque el incendio fue extinguido en 20 minutos, “la